Time;durP1;ratioP1;P1;durP2;ratioP2;P2;SDS_P1;SDS_P2;PMS_P1;PMS_P2;Temp;Humidity;BMP_temperature;BMP_pressure;BME280_temperature;BME280_humidity;BME280_pressure;Samples;Min_cycle;Max_cycle;Signal;HPM_P1;HPM_P2
2023/08/12 00:08:19;;;;;;;8.20;6.20;;;;;;;11.87;72.96;100117.02;433288;1263;139955;-59
2023/08/12 00:18:26;;;;;;;6.80;4.80;;;;;;;11.75;73.47;100123.54;433365;1261;138539;-58
2023/08/12 00:28:32;;;;;;;8.80;6.00;;;;;;;11.64;73.77;100134.38;433155;1259;139336;-60
2023/08/12 00:38:37;;;;;;;8.60;4.70;;;;;;;11.52;74.18;100134.73;433057;1264;140645;-59
2023/08/12 00:48:43;;;;;;;6.90;4.70;;;;;;;11.41;74.81;100131.14;433093;1261;139136;-60
2023/08/12 00:58:49;;;;;;;6.40;5.50;;;;;;;11.32;75.47;100130.61;433170;1263;139839;-59
2023/08/12 01:08:55;;;;;;;8.00;6.00;;;;;;;11.23;75.58;100121.16;433461;1259;139314;-59
2023/08/12 01:19:02;;;;;;;7.70;5.60;;;;;;;11.11;76.04;100122.02;433224;1259;140986;-60
2023/08/12 01:29:08;;;;;;;9.50;5.60;;;;;;;11.03;76.61;100122.31;433306;1263;140214;-59
2023/08/12 01:39:16;;;;;;;6.10;5.10;;;;;;;10.97;77.21;100120.02;433180;1262;140143;-59
2023/08/12 01:49:23;;;;;;;8.90;6.20;;;;;;;10.89;76.99;100122.56;434013;1259;139989;-58
2023/08/12 01:59:28;;;;;;;5.40;4.50;;;;;;;10.81;77.10;100118.79;433716;1256;138570;-58
2023/08/12 02:09:34;;;;;;;6.80;5.30;;;;;;;10.73;77.76;100121.89;433518;1256;138715;-58
2023/08/12 02:19:40;;;;;;;9.70;4.80;;;;;;;10.65;77.98;100127.59;433776;1256;139131;-60
2023/08/12 02:29:46;;;;;;;16.90;12.10;;;;;;;10.58;78.49;100121.11;433766;1259;139423;-59
2023/08/12 02:39:51;;;;;;;9.40;5.80;;;;;;;10.52;78.50;100114.47;433770;1259;139052;-58
2023/08/12 02:49:57;;;;;;;6.40;5.10;;;;;;;10.44;78.82;100106.71;433811;1260;139029;-58
2023/08/12 03:00:05;;;;;;;8.40;5.80;;;;;;;10.38;78.97;100103.29;434134;1256;139883;-59
2023/08/12 03:10:13;;;;;;;7.50;6.00;;;;;;;10.33;79.04;100106.36;434328;1256;139980;-58
2023/08/12 03:20:19;;;;;;;11.90;5.50;;;;;;;10.31;79.55;100105.25;434558;1255;140373;-59
2023/08/12 03:30:25;;;;;;;8.70;5.10;;;;;;;10.37;79.75;100110.19;434628;1260;139208;-59
2023/08/12 03:40:31;;;;;;;7.90;5.40;;;;;;;10.49;80.11;100108.15;433817;1256;140079;-59
2023/08/12 03:50:37;;;;;;;7.00;4.70;;;;;;;10.73;80.36;100106.27;433990;1260;139745;-58
2023/08/12 04:00:44;;;;;;;19.10;6.80;;;;;;;11.07;79.98;100107.20;433881;1256;141046;-58
2023/08/12 04:10:50;;;;;;;7.50;5.20;;;;;;;11.58;79.74;100104.42;434291;1256;139364;-59
2023/08/12 04:20:56;;;;;;;6.00;4.00;;;;;;;12.13;79.16;100103.18;434035;1259;140232;-58
2023/08/12 04:31:07;;;;;;;7.00;5.10;;;;;;;12.75;78.74;100102.46;434003;1256;139247;-58
2023/08/12 04:41:13;;;;;;;10.20;5.70;;;;;;;13.47;77.80;100102.87;433921;1260;139673;-59
2023/08/12 04:51:18;;;;;;;8.20;5.80;;;;;;;14.28;76.11;100108.05;433921;1260;139615;-58
2023/08/12 05:01:24;;;;;;;6.50;4.30;;;;;;;15.19;74.31;100115.17;433679;1260;140524;-59
2023/08/12 05:11:30;;;;;;;4.10;3.10;;;;;;;16.42;73.32;100110.64;433730;1260;140575;-59
2023/08/12 05:21:36;;;;;;;5.60;3.20;;;;;;;23.43;71.80;100102.36;433503;1260;140624;-59
2023/08/12 05:31:41;;;;;;;4.90;2.50;;;;;;;30.88;56.42;100089.14;433666;1259;140002;-60
2023/08/12 05:41:47;;;;;;;4.50;2.40;;;;;;;34.41;43.00;100085.78;434024;1259;140787;-58
2023/08/12 05:51:55;;;;;;;5.10;2.60;;;;;;;36.02;37.25;100087.96;434497;1261;139570;-59
2023/08/12 06:02:01;;;;;;;3.80;2.30;;;;;;;38.56;32.71;100085.84;434293;1260;138202;-60
2023/08/12 06:12:08;;;;;;;3.90;2.30;;;;;;;42.00;28.77;100078.89;433921;1260;139564;-58
2023/08/12 06:22:14;;;;;;;2.10;1.60;;;;;;;42.56;25.29;100085.94;434355;1260;140099;-59
2023/08/12 06:32:20;;;;;;;2.60;2.10;;;;;;;45.30;23.48;100083.03;433692;1260;138149;-61
2023/08/12 06:42:26;;;;;;;1.80;1.70;;;;;;;48.75;20.69;100073.95;433740;1258;139884;-60
2023/08/12 06:52:32;;;;;;;3.60;1.70;;;;;;;49.93;18.23;100073.42;433853;1260;137984;-61
2023/08/12 07:02:40;;;;;;;2.70;2.50;;;;;;;51.50;17.15;100066.31;433860;1264;138749;-59
2023/08/12 07:12:45;;;;;;;3.20;2.90;;;;;;;53.23;15.63;100056.89;435031;1260;138037;-59
2023/08/12 07:22:51;;;;;;;4.50;4.10;;;;;;;53.95;14.23;100063.45;433837;1260;138734;-59
2023/08/12 07:32:57;;;;;;;4.70;4.50;;;;;;;54.22;13.34;100058.61;434219;1260;138388;-61
2023/08/12 07:43:04;;;;;;;5.30;5.10;;;;;;;54.21;12.80;100050.94;433698;1258;138874;-60
2023/08/12 07:53:10;;;;;;;6.20;6.00;;;;;;;54.02;12.47;100046.66;433875;1260;140287;-60
2023/08/12 08:03:15;;;;;;;5.90;5.50;;;;;;;54.91;12.23;100036.17;434348;1258;140158;-59
2023/08/12 08:13:21;;;;;;;3.50;3.00;;;;;;;55.02;11.95;100029.50;433573;1257;138638;-59
2023/08/12 08:23:27;;;;;;;2.70;1.30;;;;;;;51.85;12.33;100023.02;434762;1257;138711;-59
2023/08/12 08:33:33;;;;;;;1.20;1.00;;;;;;;44.95;14.38;100018.34;433798;1260;139664;-60
2023/08/12 08:43:41;;;;;;;1.70;1.20;;;;;;;40.02;16.59;100018.80;433821;1260;138793;-58
2023/08/12 08:53:48;;;;;;;4.20;1.90;;;;;;;36.24;18.93;100016.38;433890;1258;142024;-58
2023/08/12 09:03:58;;;;;;;2.70;1.30;;;;;;;34.25;20.53;100011.84;433969;1257;139390;-58
2023/08/12 09:14:04;;;;;;;3.50;1.40;;;;;;;32.81;22.10;100012.79;434110;1257;142206;-58
2023/08/12 09:24:10;;;;;;;3.10;1.10;;;;;;;31.89;23.13;100004.36;433521;1258;138280;-58
2023/08/12 09:34:14;;;;;;;;;;;;;;;30.96;24.09;99989.12;435020;1259;139603;-58
2023/08/12 09:44:22;;;;;;;0.70;0.70;;;;;;;30.14;24.98;99980.00;433901;1258;125795;-58
2023/08/12 09:54:29;;;;;;;2.80;1.80;;;;;;;29.30;25.75;99966.43;433909;1260;138177;-58
2023/08/12 10:04:40;;;;;;;4.30;1.60;;;;;;;28.67;27.06;99953.73;433690;1258;139191;-58
2023/08/12 10:14:47;;;;;;;2.20;1.50;;;;;;;28.45;27.88;99946.44;434468;1260;138614;-58
2023/08/12 10:24:53;;;;;;;1.90;1.20;;;;;;;28.39;28.20;99937.70;434343;1257;138120;-58
2023/08/12 10:34:59;;;;;;;1.70;1.30;;;;;;;27.71;28.79;99931.22;433615;1260;138504;-58
2023/08/12 10:45:09;;;;;;;3.30;1.20;;;;;;;27.17;30.04;99932.95;434491;1258;139786;-58
2023/08/12 10:55:25;;;;;;;1.30;1.20;;;;;;;27.12;30.62;99928.29;434792;1256;138878;-59
2023/08/12 11:05:39;;;;;;;2.30;0.90;;;;;;;26.96;30.76;99923.74;434669;1256;138262;-56
2023/08/12 11:15:47;;;;;;;0.90;0.80;;;;;;;26.59;31.29;99916.90;434449;1260;140170;-58
2023/08/12 11:25:53;;;;;;;1.00;0.90;;;;;;;26.46;32.10;99901.36;433539;1258;138538;-58
2023/08/12 11:35:59;;;;;;;1.30;0.80;;;;;;;26.48;32.39;99887.65;433882;1260;139622;-58
2023/08/12 11:46:05;;;;;;;1.20;0.90;;;;;;;26.43;32.81;99872.83;433587;1256;138775;-59
2023/08/12 11:56:12;;;;;;;0.90;0.90;;;;;;;26.47;33.19;99861.34;433591;1258;183401;-59
2023/08/12 12:06:18;;;;;;;2.60;1.00;;;;;;;26.48;33.25;99856.80;433985;1260;138536;-59
2023/08/12 12:16:24;;;;;;;1.60;0.90;;;;;;;26.40;33.39;99845.20;433728;1257;139403;-59
2023/08/12 12:26:30;;;;;;;1.90;0.90;;;;;;;26.37;33.90;99845.55;433867;1259;138512;-58
2023/08/12 12:36:37;;;;;;;1.80;0.90;;;;;;;26.52;34.08;99843.53;434704;1256;139516;-58
2023/08/12 12:46:43;;;;;;;1.10;0.80;;;;;;;26.60;33.93;99827.39;434419;1254;138124;-62
2023/08/12 12:56:49;;;;;;;2.50;1.00;;;;;;;26.61;34.09;99810.98;434134;1260;138120;-59
2023/08/12 13:06:55;;;;;;;2.20;1.10;;;;;;;26.57;34.40;99799.23;433815;1256;138455;-60
2023/08/12 13:17:01;;;;;;;1.70;1.30;;;;;;;26.52;34.69;99788.36;433860;1256;138420;-59
2023/08/12 13:27:08;;;;;;;2.40;1.20;;;;;;;26.56;34.86;99789.45;433821;1256;138703;-58
2023/08/12 13:37:14;;;;;;;2.70;1.30;;;;;;;26.51;35.05;99787.61;434276;1260;138060;-58
2023/08/12 13:47:20;;;;;;;1.40;1.20;;;;;;;26.51;35.36;99781.20;434813;1260;139012;-58
2023/08/12 13:57:26;;;;;;;2.30;1.40;;;;;;;26.58;35.48;99766.10;434024;1260;137885;-58
2023/08/12 14:07:32;;;;;;;2.10;1.80;;;;;;;26.67;35.49;99759.66;434348;1260;139986;-58
2023/08/12 14:17:38;;;;;;;3.20;1.00;;;;;;;26.69;35.19;99750.25;433729;1256;137868;-58
2023/08/12 14:27:44;;;;;;;3.70;1.80;;;;;;;26.69;35.21;99739.98;433995;1256;138495;-58
2023/08/12 14:37:50;;;;;;;2.90;1.30;;;;;;;26.72;35.46;99731.91;434000;1256;137890;-60
2023/08/12 14:47:56;;;;;;;1.50;1.40;;;;;;;26.78;35.50;99720.79;434080;1260;138283;-60
2023/08/12 14:58:02;;;;;;;3.90;1.30;;;;;;;26.78;35.80;99706.91;433815;1260;138757;-60
2023/08/12 15:08:08;;;;;;;2.90;1.30;;;;;;;26.78;35.92;99698.11;435751;1258;138292;-59
2023/08/12 15:18:14;;;;;;;4.20;1.90;;;;;;;26.83;36.09;99691.54;434100;1258;137927;-60
2023/08/12 15:28:20;;;;;;;3.10;1.70;;;;;;;26.84;35.87;99682.77;434213;1260;139548;-57
2023/08/12 15:38:25;;;;;;;2.70;1.00;;;;;;;26.77;35.51;99677.94;434376;1256;139317;-63
2023/08/12 15:48:31;;;;;;;1.60;1.30;;;;;;;26.65;35.86;99669.61;434376;1256;138010;-58
2023/08/12 15:58:37;;;;;;;3.20;1.40;;;;;;;26.59;35.92;99665.02;434559;1256;139478;-60
2023/08/12 16:08:43;;;;;;;2.20;1.20;;;;;;;26.56;36.01;99662.80;434458;1256;140029;-59
2023/08/12 16:18:52;;;;;;;1.30;1.20;;;;;;;26.42;36.11;99662.70;434115;1255;139842;-58
2023/08/12 16:28:58;;;;;;;2.30;1.00;;;;;;;26.33;36.55;99663.08;434085;1260;138221;-58
2023/08/12 16:39:04;;;;;;;2.50;1.60;;;;;;;26.23;36.65;99664.48;434043;1260;139426;-58
2023/08/12 16:49:10;;;;;;;1.70;1.50;;;;;;;26.08;36.85;99656.67;434472;1256;139076;-59
2023/08/12 16:59:16;;;;;;;3.50;1.20;;;;;;;25.98;37.14;99653.88;435064;1259;139322;-59
2023/08/12 17:09:22;;;;;;;2.80;2.00;;;;;;;25.89;37.27;99649.79;434796;1259;140848;-58
2023/08/12 17:19:27;;;;;;;4.10;2.10;;;;;;;26.09;37.37;99638.69;434260;1256;139337;-59
2023/08/12 17:29:33;;;;;;;3.00;1.50;;;;;;;25.99;37.24;99633.25;434323;1260;138526;-58
2023/08/12 17:39:39;;;;;;;6.10;2.40;;;;;;;25.58;38.08;99633.98;434668;1260;139767;-58
2023/08/12 17:49:45;;;;;;;5.20;2.20;;;;;;;25.17;38.69;99633.17;434401;1260;139490;-60
2023/08/12 17:59:51;;;;;;;10.20;3.70;;;;;;;24.76;39.65;99627.73;434080;1260;138755;-57
2023/08/12 18:09:57;;;;;;;7.20;2.80;;;;;;;24.32;41.00;99634.05;434065;1260;138668;-59
2023/08/12 18:20:04;;;;;;;5.30;2.20;;;;;;;23.84;42.08;99642.70;433876;1256;139026;-58
2023/08/12 18:30:12;;;;;;;4.20;2.80;;;;;;;23.40;42.70;99651.72;434423;1256;138080;-59
2023/08/12 18:40:18;;;;;;;4.10;2.90;;;;;;;23.05;43.60;99666.60;434269;1256;139821;-58
2023/08/12 18:50:24;;;;;;;3.70;2.40;;;;;;;22.70;44.39;99673.72;434333;1259;138855;-59
2023/08/12 19:00:29;;;;;;;5.10;3.50;;;;;;;22.38;45.27;99672.07;434051;1256;138941;-58
2023/08/12 19:10:35;;;;;;;5.10;3.30;;;;;;;22.13;45.91;99667.20;434102;1256;138508;-60
2023/08/12 19:20:41;;;;;;;5.70;4.10;;;;;;;21.88;46.60;99673.42;434126;1256;139647;-59
2023/08/12 19:30:51;;;;;;;7.70;2.80;;;;;;;21.61;47.43;99671.39;434231;1260;138487;-58
2023/08/12 19:40:59;;;;;;;7.90;3.20;;;;;;;21.40;48.07;99664.70;433878;1258;138526;-59
2023/08/12 19:51:05;;;;;;;6.60;2.80;;;;;;;21.23;48.59;99661.96;434582;1256;139718;-59
2023/08/12 20:01:11;;;;;;;5.70;3.20;;;;;;;21.03;49.22;99664.05;434059;1256;138997;-58
2023/08/12 20:11:17;;;;;;;4.80;4.10;;;;;;;20.83;49.78;99660.83;434513;1256;138204;-59
2023/08/12 20:21:23;;;;;;;5.70;3.10;;;;;;;20.66;50.30;99661.17;434674;1256;138916;-59
2023/08/12 20:31:30;;;;;;;4.60;3.10;;;;;;;20.55;50.79;99673.57;434353;1260;139053;-58
2023/08/12 20:41:35;;;;;;;6.10;3.30;;;;;;;20.42;51.44;99680.16;434099;1256;138238;-59
2023/08/12 20:51:41;;;;;;;8.90;4.20;;;;;;;20.31;52.22;99685.38;434015;1256;139504;-59
2023/08/12 21:01:48;;;;;;;4.50;4.10;;;;;;;20.24;52.80;99687.77;433878;1260;139193;-59
2023/08/12 21:11:54;;;;;;;5.10;3.50;;;;;;;20.10;53.35;99682.81;434996;1260;139831;-59
2023/08/12 21:22:00;;;;;;;7.20;4.60;;;;;;;19.90;54.09;99673.99;434234;1259;138537;-58
2023/08/12 21:32:06;;;;;;;8.10;4.60;;;;;;;19.71;54.90;99665.36;433894;1256;138916;-60
2023/08/12 21:42:12;;;;;;;6.30;4.70;;;;;;;19.63;55.46;99650.59;434539;1256;139042;-58
2023/08/12 21:52:18;;;;;;;7.60;5.10;;;;;;;19.58;56.07;99635.39;434638;1256;139256;-60
2023/08/12 22:02:28;;;;;;;8.20;5.30;;;;;;;19.53;56.53;99631.98;434423;1260;138777;-59
2023/08/12 22:12:34;;;;;;;6.60;5.00;;;;;;;19.45;57.12;99625.03;434347;1260;138659;-59
2023/08/12 22:22:41;;;;;;;7.00;4.80;;;;;;;19.38;57.47;99624.69;435463;1260;138400;-58
2023/08/12 22:32:46;;;;;;;7.80;4.80;;;;;;;19.33;57.89;99618.23;434082;1259;138821;-58
2023/08/12 22:42:52;;;;;;;8.80;4.20;;;;;;;19.26;58.36;99606.98;434207;1257;138680;-59
2023/08/12 22:52:58;;;;;;;4.50;3.90;;;;;;;19.19;58.65;99614.27;433905;1256;139980;-59
2023/08/12 23:03:04;;;;;;;4.90;4.40;;;;;;;19.12;59.11;99605.55;433958;1260;138958;-59
2023/08/12 23:13:10;;;;;;;9.00;4.50;;;;;;;19.04;59.44;99598.73;434012;1256;141540;-59
2023/08/12 23:23:16;;;;;;;5.90;4.90;;;;;;;19.00;59.88;99602.50;434345;1261;138994;-59
2023/08/12 23:33:22;;;;;;;6.50;4.40;;;;;;;18.95;60.26;99605.20;434378;1258;140652;-59
2023/08/12 23:43:28;;;;;;;5.30;4.80;;;;;;;18.83;60.64;99608.92;434078;1260;140936;-59
2023/08/12 23:53:34;;;;;;;6.50;4.80;;;;;;;18.70;60.86;99586.60;434277;1256;140653;-57
